createdAt,value
2023-11-24T00:02:00.850Z,79.65
2023-11-24T00:04:31.313Z,79.74
2023-11-24T00:06:59.340Z,79.95
2023-11-24T00:09:28.816Z,79.78
2023-11-24T00:11:56.577Z,80.06
2023-11-24T00:14:23.812Z,79.88
2023-11-24T00:16:50.915Z,79.84
2023-11-24T00:19:18.012Z,79.95
2023-11-24T00:21:45.642Z,79.77
2023-11-24T00:24:14.106Z,80.00
2023-11-24T00:26:41.796Z,80.04
2023-11-24T00:29:08.933Z,80.06
2023-11-24T00:31:36.105Z,80.30
2023-11-24T00:34:03.378Z,80.03
2023-11-24T00:36:31.285Z,80.26
2023-11-24T00:38:58.408Z,79.77
2023-11-24T00:41:26.270Z,80.27
2023-11-24T00:43:53.358Z,79.75
2023-11-24T00:46:20.539Z,79.39
2023-11-24T00:48:48.549Z,79.42
2023-11-24T00:51:18.820Z,79.19
2023-11-24T00:53:46.314Z,79.20
2023-11-24T00:56:13.432Z,79.00
2023-11-24T00:58:40.553Z,78.52
2023-11-24T01:01:10.628Z,78.70
2023-11-24T01:03:39.642Z,78.52
2023-11-24T01:06:07.343Z,78.43
2023-11-24T01:08:34.634Z,78.16
2023-11-24T01:11:06.478Z,78.42
2023-11-24T01:13:36.287Z,78.61
2023-11-24T01:16:06.302Z,78.81
2023-11-24T01:18:37.709Z,78.56
2023-11-24T01:21:08.589Z,78.50
2023-11-24T01:23:36.832Z,78.39
2023-11-24T01:26:04.559Z,78.54
2023-11-24T01:28:31.662Z,78.78
2023-11-24T01:30:58.960Z,78.78
2023-11-24T01:33:26.266Z,78.64
2023-11-24T01:35:55.089Z,78.70
2023-11-24T01:38:22.227Z,79.04
2023-11-24T01:40:49.344Z,79.00
2023-11-24T01:43:17.325Z,78.85
2023-11-24T01:45:46.805Z,79.19
2023-11-24T01:48:17.293Z,78.88
2023-11-24T01:50:45.256Z,79.53
2023-11-24T01:53:12.858Z,79.16
2023-11-24T01:55:40.049Z,79.07
2023-11-24T01:58:08.069Z,78.80
2023-11-24T02:00:37.140Z,79.01
2023-11-24T02:03:04.383Z,78.64
2023-11-24T02:05:31.865Z,78.57
2023-11-24T02:07:59.265Z,78.49
2023-11-24T02:10:27.200Z,78.81
2023-11-24T02:12:54.482Z,78.64
2023-11-24T02:15:21.783Z,78.36
2023-11-24T02:17:49.092Z,78.11
2023-11-24T02:20:16.829Z,78.02
2023-11-24T02:22:44.784Z,77.71
2023-11-24T02:25:12.926Z,77.87
2023-11-24T02:27:40.425Z,77.83
2023-11-24T02:30:08.254Z,77.55
2023-11-24T02:32:35.649Z,77.24
2023-11-24T02:35:04.140Z,77.31
2023-11-24T02:37:32.199Z,77.33
2023-11-24T02:39:59.462Z,77.37
2023-11-24T02:42:27.473Z,77.40
2023-11-24T02:44:54.729Z,77.30
2023-11-24T02:47:22.385Z,77.40
2023-11-24T02:49:49.595Z,77.21
2023-11-24T02:52:16.732Z,77.08
2023-11-24T02:54:44.007Z,77.31
2023-11-24T02:57:11.229Z,77.32
2023-11-24T02:59:38.382Z,77.14
2023-11-24T03:02:07.877Z,77.12
2023-11-24T03:04:35.104Z,77.13
2023-11-24T03:07:02.542Z,77.13
2023-11-24T03:09:29.665Z,77.58
2023-11-24T03:11:57.240Z,77.58
2023-11-24T03:14:25.263Z,77.77
2023-11-24T03:16:52.904Z,77.68
2023-11-24T03:19:20.877Z,77.51
2023-11-24T03:21:48.167Z,77.84
2023-11-24T03:24:16.611Z,77.75
2023-11-24T03:26:43.709Z,78.03
2023-11-24T03:29:10.863Z,78.10
2023-11-24T03:31:40.872Z,78.46
2023-11-24T03:34:08.272Z,78.43
2023-11-24T03:36:35.504Z,78.85
2023-11-24T03:39:02.625Z,79.06
2023-11-24T03:41:29.741Z,79.27
2023-11-24T03:43:56.868Z,79.80
2023-11-24T03:46:24.016Z,79.75
2023-11-24T03:48:51.470Z,79.77
2023-11-24T03:51:20.093Z,79.88
2023-11-24T03:53:47.311Z,79.95
2023-11-24T03:56:16.165Z,80.46
2023-11-24T03:58:44.035Z,80.30
2023-11-24T04:01:15.516Z,80.17
2023-11-24T04:03:49.197Z,80.31
2023-11-24T04:06:16.525Z,80.13
2023-11-24T04:08:44.337Z,80.40
2023-11-24T04:11:12.065Z,80.40
2023-11-24T04:13:39.359Z,80.16
2023-11-24T04:16:08.219Z,80.10
2023-11-24T04:18:35.457Z,80.41
2023-11-24T04:21:02.763Z,80.31
2023-11-24T04:23:29.865Z,80.20
2023-11-24T04:25:56.953Z,79.90
2023-11-24T04:28:24.170Z,80.20
2023-11-24T04:30:51.394Z,80.27
2023-11-24T04:33:19.999Z,80.33
2023-11-24T04:35:48.327Z,80.11
2023-11-24T04:38:15.393Z,80.16
2023-11-24T04:40:42.569Z,80.48
2023-11-24T04:43:09.854Z,80.58
2023-11-24T04:45:37.129Z,80.56
2023-11-24T04:48:04.635Z,80.70
2023-11-24T04:50:31.774Z,80.83
2023-11-24T04:52:58.869Z,80.39
2023-11-24T04:55:28.029Z,80.18
2023-11-24T04:57:55.798Z,80.05
2023-11-24T05:00:23.094Z,80.13
2023-11-24T05:02:50.976Z,80.30
2023-11-24T05:05:18.810Z,80.90
2023-11-24T05:07:45.961Z,81.17
2023-11-24T05:10:13.251Z,81.41
2023-11-24T05:12:40.603Z,81.44
2023-11-24T05:15:09.846Z,81.22
2023-11-24T05:17:37.444Z,81.40
2023-11-24T05:20:07.468Z,81.35
2023-11-24T05:22:35.185Z,81.45
2023-11-24T05:25:02.344Z,81.51
2023-11-24T05:27:29.715Z,81.63
2023-11-24T05:29:56.813Z,81.88
2023-11-24T05:32:23.924Z,81.87
2023-11-24T05:34:52.457Z,82.08
2023-11-24T05:37:19.652Z,82.19
2023-11-24T05:39:46.869Z,82.16
2023-11-24T05:42:15.043Z,82.29
2023-11-24T05:44:42.871Z,82.08
2023-11-24T05:47:10.010Z,82.24
2023-11-24T05:49:37.132Z,82.48
2023-11-24T05:52:04.529Z,82.70
2023-11-24T05:54:33.645Z,82.49
2023-11-24T05:57:00.893Z,82.36
2023-11-24T05:59:30.808Z,82.49
2023-11-24T06:01:58.892Z,82.02
2023-11-24T06:04:26.197Z,82.33
2023-11-24T06:06:53.501Z,82.49
2023-11-24T06:09:20.661Z,82.61
2023-11-24T06:11:47.827Z,82.37
2023-11-24T06:14:15.022Z,82.55
2023-11-24T06:16:42.167Z,82.62
2023-11-24T06:19:09.397Z,82.86
2023-11-24T06:21:37.428Z,82.51
2023-11-24T06:24:04.780Z,82.83
2023-11-24T06:26:34.416Z,82.72
2023-11-24T06:29:01.644Z,82.67
2023-11-24T06:31:29.456Z,82.27
2023-11-24T06:33:56.712Z,82.60
2023-11-24T06:36:23.885Z,82.60
2023-11-24T06:38:51.000Z,82.93
2023-11-24T06:41:18.104Z,82.84
2023-11-24T06:43:45.243Z,82.38
2023-11-24T06:46:13.504Z,81.68
2023-11-24T06:48:40.690Z,81.99
2023-11-24T06:51:08.687Z,82.08
2023-11-24T06:53:35.878Z,82.14
2023-11-24T06:56:03.931Z,81.83
2023-11-24T06:58:31.038Z,81.91
2023-11-24T07:00:58.243Z,82.02
2023-11-24T07:03:25.380Z,81.97
2023-11-24T07:05:52.512Z,81.83
2023-11-24T07:08:19.588Z,82.04
2023-11-24T07:10:46.727Z,82.07
2023-11-24T07:13:13.916Z,81.44
2023-11-24T07:15:41.101Z,81.49
2023-11-24T07:18:08.704Z,81.45
2023-11-24T07:20:35.919Z,81.59
2023-11-24T07:23:03.036Z,81.21
2023-11-24T07:25:30.155Z,81.55
2023-11-24T07:27:57.523Z,81.43
2023-11-24T07:30:26.734Z,81.73
2023-11-24T07:32:53.950Z,81.50
2023-11-24T07:35:21.606Z,81.18
2023-11-24T07:37:48.753Z,81.13
2023-11-24T07:40:16.598Z,81.06
2023-11-24T07:42:45.828Z,81.00
2023-11-24T07:45:13.647Z,80.82
2023-11-24T07:47:41.898Z,81.04
2023-11-24T07:50:09.238Z,81.21
2023-11-24T07:52:38.109Z,81.43
2023-11-24T07:55:07.037Z,81.60
2023-11-24T07:57:34.392Z,81.79
2023-11-24T08:00:01.965Z,82.07
2023-11-24T08:02:29.553Z,81.80
2023-11-24T08:04:56.772Z,82.04
2023-11-24T08:07:24.050Z,81.97
2023-11-24T08:09:51.325Z,82.16
2023-11-24T08:12:18.390Z,82.19
2023-11-24T08:14:45.775Z,82.04
2023-11-24T08:17:12.980Z,82.16
2023-11-24T08:19:43.772Z,82.21
2023-11-24T08:22:11.361Z,82.46
2023-11-24T08:24:40.361Z,82.54
2023-11-24T08:27:07.519Z,82.42
2023-11-24T08:29:35.322Z,82.37
2023-11-24T08:32:03.829Z,82.32
2023-11-24T08:34:31.801Z,82.23
2023-11-24T08:37:01.690Z,82.34
2023-11-24T08:39:28.868Z,82.37
2023-11-24T08:41:55.908Z,82.09
2023-11-24T08:44:26.003Z,81.99
2023-11-24T08:46:56.393Z,81.83
2023-11-24T08:49:23.963Z,81.71
2023-11-24T08:51:51.217Z,81.62
2023-11-24T08:54:18.355Z,81.83
2023-11-24T08:56:45.498Z,82.14
2023-11-24T08:59:13.380Z,82.18
2023-11-24T09:01:40.731Z,81.49
2023-11-24T09:04:08.857Z,81.79
2023-11-24T09:06:40.232Z,81.62
2023-11-24T09:09:11.064Z,81.92
2023-11-24T09:11:38.291Z,82.07
2023-11-24T09:14:06.338Z,82.26
2023-11-24T09:16:34.280Z,82.25
2023-11-24T09:19:01.731Z,82.28
2023-11-24T09:21:32.477Z,82.53
2023-11-24T09:23:59.694Z,82.73
2023-11-24T09:26:26.844Z,82.56
2023-11-24T09:28:54.025Z,82.73
2023-11-24T09:31:21.312Z,82.82
2023-11-24T09:33:48.404Z,82.65
2023-11-24T09:36:15.647Z,82.90
2023-11-24T09:38:42.890Z,82.42
2023-11-24T09:41:12.655Z,82.71
2023-11-24T09:43:40.154Z,82.20
2023-11-24T09:46:12.250Z,82.44
2023-11-24T09:48:46.535Z,82.52
2023-11-24T09:51:18.295Z,82.53
2023-11-24T09:53:45.909Z,82.05
2023-11-24T09:56:13.801Z,81.83
2023-11-24T09:58:43.822Z,81.29
2023-11-24T10:01:11.031Z,81.78
2023-11-24T10:03:42.514Z,81.50
2023-11-24T10:06:12.958Z,81.77
2023-11-24T10:08:41.725Z,81.81
2023-11-24T10:11:14.791Z,81.65
2023-11-24T10:13:49.208Z,81.54
2023-11-24T10:16:18.295Z,81.43
2023-11-24T10:18:47.432Z,81.61
2023-11-24T10:21:23.771Z,81.47
2023-11-24T10:23:59.338Z,81.78
2023-11-24T10:26:27.174Z,81.46
2023-11-24T10:28:57.137Z,81.58
2023-11-24T10:31:24.751Z,81.54
2023-11-24T10:33:52.905Z,81.50
2023-11-24T10:36:26.868Z,81.43
2023-11-24T10:39:04.093Z,81.50
2023-11-24T10:41:39.861Z,81.42
2023-11-24T10:44:10.391Z,81.56
2023-11-24T10:46:43.185Z,80.88
2023-11-24T10:49:30.588Z,80.99
2023-11-24T10:52:12.889Z,80.25
2023-11-24T10:54:46.877Z,80.29
2023-11-24T10:57:15.055Z,80.41
2023-11-24T10:59:44.426Z,80.41
2023-11-24T11:02:14.290Z,80.49
2023-11-24T11:05:18.771Z,80.05
2023-11-24T11:08:15.278Z,79.44
2023-11-24T11:10:47.431Z,79.48
2023-11-24T11:13:16.194Z,79.63
2023-11-24T11:15:43.526Z,79.62
2023-11-24T11:18:17.439Z,79.85
2023-11-24T11:20:46.536Z,79.79
2023-11-24T11:23:17.054Z,79.44
2023-11-24T11:25:48.174Z,80.10
2023-11-24T11:28:23.575Z,79.85
2023-11-24T11:30:52.002Z,79.91
2023-11-24T11:33:21.139Z,79.68
2023-11-24T11:35:50.370Z,79.93
2023-11-24T11:38:37.110Z,79.96
2023-11-24T11:41:07.761Z,79.75
2023-11-24T11:43:53.372Z,79.92
2023-11-24T11:46:20.587Z,80.02
2023-11-24T11:48:48.448Z,80.36
2023-11-24T11:51:18.441Z,80.15
2023-11-24T11:53:45.782Z,79.91
2023-11-24T11:56:13.613Z,79.85
2023-11-24T11:58:43.900Z,79.93
2023-11-24T12:01:11.259Z,79.94
2023-11-24T12:03:39.370Z,80.05
2023-11-24T12:06:07.692Z,79.95
2023-11-24T12:08:35.270Z,79.89
2023-11-24T12:11:02.410Z,79.71
2023-11-24T12:13:30.441Z,79.67
2023-11-24T12:16:01.158Z,79.58
2023-11-24T12:18:28.617Z,79.99
2023-11-24T12:20:55.838Z,80.29
2023-11-24T12:23:24.826Z,80.43
2023-11-24T12:25:56.249Z,80.41
2023-11-24T12:28:23.766Z,80.48
2023-11-24T12:30:51.134Z,80.68
2023-11-24T12:33:20.909Z,80.24
2023-11-24T12:35:56.386Z,80.09
2023-11-24T12:38:24.221Z,80.26
2023-11-24T12:40:52.541Z,80.07
2023-11-24T12:43:21.094Z,80.09
2023-11-24T12:45:49.858Z,80.03
2023-11-24T12:48:20.704Z,80.10
2023-11-24T12:50:49.193Z,80.08
2023-11-24T12:53:22.464Z,79.97
2023-11-24T12:55:49.836Z,80.11
2023-11-24T12:58:17.040Z,80.15
2023-11-24T13:00:44.237Z,80.06
2023-11-24T13:03:11.816Z,80.21
2023-11-24T13:05:39.780Z,79.85
2023-11-24T13:08:07.810Z,79.73
2023-11-24T13:10:35.925Z,79.40
2023-11-24T13:13:03.305Z,79.36
2023-11-24T13:15:30.544Z,79.43
2023-11-24T13:17:57.782Z,79.37
2023-11-24T13:20:30.407Z,79.25
2023-11-24T13:22:57.815Z,79.30
2023-11-24T13:25:29.811Z,79.18
2023-11-24T13:27:57.204Z,79.73
2023-11-24T13:30:24.392Z,79.79
2023-11-24T13:32:51.869Z,79.60
2023-11-24T13:35:21.090Z,80.03
2023-11-24T13:37:49.479Z,79.82
2023-11-24T13:40:27.907Z,80.05
2023-11-24T13:42:55.890Z,80.01
2023-11-24T13:45:23.117Z,80.18
2023-11-24T13:47:51.557Z,80.42
2023-11-24T13:50:20.480Z,80.60
2023-11-24T13:52:57.667Z,80.30
2023-11-24T13:55:26.088Z,79.93
2023-11-24T13:57:55.306Z,80.04
2023-11-24T14:00:23.324Z,80.40
2023-11-24T14:02:50.942Z,80.13
2023-11-24T14:05:18.154Z,80.16
2023-11-24T14:07:46.321Z,80.05
2023-11-24T14:10:19.385Z,79.68
2023-11-24T14:12:49.483Z,79.75
2023-11-24T14:15:17.663Z,79.17
2023-11-24T14:17:45.338Z,79.17
2023-11-24T14:20:14.432Z,79.27
2023-11-24T14:22:41.657Z,78.85
2023-11-24T14:25:09.915Z,78.89
2023-11-24T14:27:39.620Z,78.90
2023-11-24T14:30:09.266Z,78.97
2023-11-24T14:32:36.690Z,78.95
2023-11-24T14:35:07.302Z,79.07
2023-11-24T14:37:34.874Z,78.85
2023-11-24T14:40:02.802Z,79.17
2023-11-24T14:42:30.722Z,79.02
2023-11-24T14:44:57.857Z,78.86
2023-11-24T14:47:24.962Z,79.28
2023-11-24T14:49:52.171Z,79.28
2023-11-24T14:52:19.835Z,79.37
2023-11-24T14:54:48.025Z,79.22
2023-11-24T14:57:17.157Z,79.11
2023-11-24T14:59:44.426Z,79.02
2023-11-24T15:02:14.965Z,78.99
2023-11-24T15:04:44.295Z,78.32
2023-11-24T15:07:11.829Z,77.68
2023-11-24T15:09:43.532Z,78.32
2023-11-24T15:12:10.650Z,78.81
2023-11-24T15:14:39.543Z,79.61
2023-11-24T15:17:07.329Z,79.67
2023-11-24T15:19:37.883Z,79.90
2023-11-24T15:22:10.961Z,79.78
2023-11-24T15:24:39.990Z,79.88
2023-11-24T15:27:09.187Z,79.68
2023-11-24T15:29:38.930Z,79.80
2023-11-24T15:32:13.266Z,79.72
2023-11-24T15:34:45.006Z,80.04
2023-11-24T15:37:13.106Z,79.92
2023-11-24T15:39:42.749Z,80.08
2023-11-24T15:42:10.899Z,80.10
2023-11-24T15:44:39.457Z,80.50
2023-11-24T15:47:12.292Z,80.23
2023-11-24T15:49:43.306Z,80.02
2023-11-24T15:52:13.791Z,79.82
2023-11-24T15:54:41.974Z,80.02
2023-11-24T15:57:13.467Z,79.39
2023-11-24T15:59:47.100Z,79.09
2023-11-24T16:02:22.144Z,79.52
2023-11-24T16:04:57.583Z,79.40
2023-11-24T16:07:30.821Z,79.18
2023-11-24T16:09:59.285Z,79.24
2023-11-24T16:12:33.168Z,79.08
2023-11-24T16:15:00.351Z,79.00
2023-11-24T16:17:27.704Z,79.38
2023-11-24T16:19:54.801Z,78.96
2023-11-24T16:22:22.416Z,78.80
2023-11-24T16:24:51.832Z,79.17
2023-11-24T16:27:19.715Z,78.86
2023-11-24T16:29:46.852Z,79.19
2023-11-24T16:32:13.991Z,79.23
2023-11-24T16:34:44.067Z,79.25
2023-11-24T16:37:12.561Z,79.59
2023-11-24T16:39:39.663Z,79.77
2023-11-24T16:42:06.830Z,79.71
2023-11-24T16:44:34.087Z,79.64
2023-11-24T16:47:01.321Z,79.90
2023-11-24T16:49:32.269Z,80.14
2023-11-24T16:52:00.176Z,80.04
2023-11-24T16:54:27.605Z,80.17
2023-11-24T16:56:54.716Z,80.43
2023-11-24T16:59:23.164Z,80.23
2023-11-24T17:01:53.280Z,80.30
2023-11-24T17:04:21.121Z,80.70
2023-11-24T17:06:51.556Z,80.51
2023-11-24T17:09:20.137Z,80.49
2023-11-24T17:11:47.649Z,80.56
2023-11-24T17:14:19.503Z,80.50
2023-11-24T17:16:46.946Z,80.62
2023-11-24T17:19:15.609Z,80.74
2023-11-24T17:21:43.132Z,80.78
2023-11-24T17:24:10.245Z,80.69
2023-11-24T17:26:37.302Z,80.77
2023-11-24T17:29:05.047Z,80.83
2023-11-24T17:31:33.126Z,80.81
2023-11-24T17:34:02.718Z,80.98
2023-11-24T17:36:32.275Z,81.06
2023-11-24T17:39:00.277Z,81.14
2023-11-24T17:41:27.464Z,80.96
2023-11-24T17:43:55.653Z,81.09
2023-11-24T17:46:22.785Z,81.17
2023-11-24T17:48:49.916Z,80.94
2023-11-24T17:51:18.093Z,81.21
2023-11-24T17:53:45.190Z,81.52
2023-11-24T17:56:12.341Z,81.62
2023-11-24T17:58:39.475Z,81.56
2023-11-24T18:01:06.776Z,81.79
2023-11-24T18:03:34.078Z,81.64
2023-11-24T18:06:03.473Z,81.75
2023-11-24T18:08:34.822Z,81.60
2023-11-24T18:11:02.130Z,81.60
2023-11-24T18:13:29.823Z,81.53
2023-11-24T18:15:57.420Z,81.52
2023-11-24T18:18:24.607Z,81.08
2023-11-24T18:20:51.769Z,81.08
2023-11-24T18:23:18.929Z,80.90
2023-11-24T18:25:46.426Z,80.98
2023-11-24T18:28:15.517Z,80.74
2023-11-24T18:30:42.975Z,80.76
2023-11-24T18:33:10.529Z,80.52
2023-11-24T18:35:39.799Z,80.50
2023-11-24T18:38:07.002Z,80.30
2023-11-24T18:40:34.374Z,80.33
2023-11-24T18:43:01.534Z,80.26
2023-11-24T18:45:29.174Z,80.53
2023-11-24T18:47:56.368Z,80.90
2023-11-24T18:50:24.079Z,80.59
2023-11-24T18:52:51.274Z,81.13
2023-11-24T18:55:18.691Z,80.87
2023-11-24T18:57:48.582Z,81.30
2023-11-24T19:00:20.444Z,81.52
2023-11-24T19:02:49.264Z,81.50
2023-11-24T19:05:17.502Z,81.28
2023-11-24T19:07:44.684Z,81.05
2023-11-24T19:10:12.173Z,81.02
2023-11-24T19:12:41.176Z,80.99
2023-11-24T19:15:10.196Z,81.11
2023-11-24T19:17:41.230Z,81.19
2023-11-24T19:20:12.353Z,81.06
2023-11-24T19:22:39.518Z,80.99
2023-11-24T19:25:07.185Z,80.83
2023-11-24T19:27:35.126Z,80.58
2023-11-24T19:30:02.588Z,80.18
2023-11-24T19:32:30.177Z,79.92
2023-11-24T19:34:57.410Z,79.81
2023-11-24T19:37:26.144Z,79.80
2023-11-24T19:39:53.431Z,79.76
2023-11-24T19:42:22.554Z,79.98
2023-11-24T19:44:51.131Z,79.85
2023-11-24T19:47:18.225Z,79.95
2023-11-24T19:49:49.194Z,79.62
2023-11-24T19:52:17.151Z,79.82
2023-11-24T19:54:44.355Z,80.07
2023-11-24T19:57:11.450Z,79.94
2023-11-24T19:59:38.537Z,79.86
2023-11-24T20:02:06.608Z,79.63
2023-11-24T20:04:34.280Z,79.54
2023-11-24T20:07:01.562Z,79.19
2023-11-24T20:09:28.959Z,79.14
2023-11-24T20:11:56.122Z,79.09
2023-11-24T20:14:23.290Z,79.13
2023-11-24T20:16:51.707Z,78.71
2023-11-24T20:19:19.204Z,78.94
2023-11-24T20:21:46.444Z,78.59
2023-11-24T20:24:13.825Z,78.36
2023-11-24T20:26:41.673Z,78.23
2023-11-24T20:29:09.439Z,78.12
2023-11-24T20:31:37.221Z,77.82
2023-11-24T20:34:04.556Z,77.80
2023-11-24T20:36:32.083Z,77.84
2023-11-24T20:38:59.619Z,77.53
2023-11-24T20:41:27.090Z,77.45
2023-11-24T20:43:55.248Z,77.47
2023-11-24T20:46:22.483Z,77.04
2023-11-24T20:48:49.697Z,77.17
2023-11-24T20:51:17.015Z,77.10
2023-11-24T20:53:44.239Z,76.67
2023-11-24T20:56:12.423Z,76.95
2023-11-24T20:58:39.880Z,77.09
2023-11-24T21:01:07.237Z,76.68
2023-11-24T21:03:35.141Z,76.61
2023-11-24T21:06:02.365Z,76.64
2023-11-24T21:08:29.487Z,76.09
2023-11-24T21:10:56.563Z,75.90
2023-11-24T21:13:23.765Z,75.56
2023-11-24T21:15:51.445Z,75.35
2023-11-24T21:18:18.791Z,75.22
2023-11-24T21:20:48.934Z,74.54
2023-11-24T21:23:16.867Z,74.55
2023-11-24T21:25:44.605Z,74.36
2023-11-24T21:28:12.179Z,74.64
2023-11-24T21:30:44.268Z,74.26
2023-11-24T21:33:12.815Z,74.25
2023-11-24T21:35:42.314Z,74.47
2023-11-24T21:38:11.191Z,74.27
2023-11-24T21:40:38.975Z,74.24
2023-11-24T21:43:06.360Z,74.26
2023-11-24T21:45:33.568Z,74.17
2023-11-24T21:48:03.551Z,74.37
2023-11-24T21:50:30.760Z,74.33
2023-11-24T21:52:57.824Z,74.86
2023-11-24T21:55:25.513Z,74.79
2023-11-24T21:57:54.790Z,74.68
2023-11-24T22:00:21.992Z,74.70
2023-11-24T22:02:49.955Z,74.58
2023-11-24T22:05:17.218Z,74.59
2023-11-24T22:07:44.701Z,74.58
2023-11-24T22:10:15.899Z,75.24
2023-11-24T22:12:44.047Z,75.13
2023-11-24T22:15:12.524Z,75.39
2023-11-24T22:17:40.004Z,75.47
2023-11-24T22:20:12.085Z,75.71
2023-11-24T22:22:40.478Z,75.53
2023-11-24T22:25:09.043Z,75.51
2023-11-24T22:27:36.277Z,75.70
2023-11-24T22:30:08.239Z,75.57
2023-11-24T22:32:36.866Z,75.39
2023-11-24T22:35:04.362Z,75.37
2023-11-24T22:37:33.520Z,75.71
2023-11-24T22:40:01.667Z,75.92
2023-11-24T22:42:30.532Z,76.44
2023-11-24T22:44:57.694Z,76.50
2023-11-24T22:47:25.537Z,76.97
2023-11-24T22:49:52.581Z,76.96
2023-11-24T22:52:19.697Z,76.89
2023-11-24T22:54:46.876Z,77.03
2023-11-24T22:57:13.962Z,77.15
2023-11-24T22:59:41.047Z,77.35
2023-11-24T23:02:09.087Z,77.55
2023-11-24T23:04:36.312Z,77.58
2023-11-24T23:07:03.940Z,77.54
2023-11-24T23:09:32.272Z,77.44
2023-11-24T23:11:59.454Z,76.99
2023-11-24T23:14:32.895Z,76.54
2023-11-24T23:17:01.662Z,76.51
2023-11-24T23:19:29.352Z,76.81
2023-11-24T23:21:56.496Z,76.83
2023-11-24T23:24:25.826Z,76.48
2023-11-24T23:26:53.699Z,76.63
2023-11-24T23:29:20.843Z,77.03
2023-11-24T23:31:48.115Z,77.01
2023-11-24T23:34:16.673Z,76.88
2023-11-24T23:36:44.015Z,77.06
2023-11-24T23:39:13.668Z,76.90
2023-11-24T23:41:40.892Z,76.97
2023-11-24T23:44:09.769Z,76.64
2023-11-24T23:46:36.891Z,76.87
2023-11-24T23:49:04.142Z,77.05
2023-11-24T23:51:31.545Z,76.92
2023-11-24T23:53:58.868Z,76.99
2023-11-24T23:56:26.166Z,77.01
2023-11-24T23:58:53.331Z,77.43
